<?xml version='1.0' encoding='UTF-8'?><gpx version="1.1" creator="JPX - https://github.com/jenetics/jpx" xmlns="http://www.topografix.com/GPX/1/1"><trk><trkseg><trkpt lat="37.38300242674829" lon="13.355883989242978"><ele>130.00000000000003</ele><time>2026-04-07T17:00:54.999Z</time></trkpt><trkpt lat="37.38293992679727" lon="13.355897909055159"><ele>130.0</ele><time>2026-04-07T17:00:56.999Z</time></trkpt><trkpt lat="37.38287036383294" lon="13.355878041081233"><ele>130.0</ele><time>2026-04-07T17:00:58.999Z</time></trkpt><trkpt lat="37.38282352237949" lon="13.355792768871078"><ele>130.0</ele><time>2026-04-07T17:01:01.999Z</time></trkpt><trkpt lat="37.38280045670434" lon="13.355717581991527"><ele>130.0</ele><time>2026-04-07T17:01:04.999Z</time></trkpt><trkpt lat="37.38277096918784" lon="13.355604125031837"><ele>130.00000000000003</ele><time>2026-04-07T17:01:07.999Z</time></trkpt><trkpt lat="37.382727576963546" lon="13.355532089014018"><ele>130.0</ele><time>2026-04-07T17:01:11.999Z</time></trkpt><trkpt lat="37.382502188791676" lon="13.355651066961432"><ele>130.0</ele><time>2026-04-07T17:01:22.999Z</time></trkpt><trkpt lat="37.382406808872354" lon="13.355695346573608"><ele>130.0</ele><time>2026-04-07T17:01:23.999Z</time></trkpt><trkpt lat="37.382275138118054" lon="13.355771515985522"><ele>130.0</ele><time>2026-04-07T17:01:24.999Z</time></trkpt><trkpt lat="37.3821109507543" lon="13.355866956670374"><ele>130.0</ele><time>2026-04-07T17:01:25.999Z</time></trkpt><trkpt lat="37.38194087088546" lon="13.355966811562226"><ele>133.5</ele><time>2026-04-07T17:01:26.999Z</time></trkpt><trkpt lat="37.38174608697796" lon="13.356090246650618"><ele>137.0</ele><time>2026-04-07T17:01:27.999Z</time></trkpt><trkpt lat="37.38154163197256" lon="13.356230504442772"><ele>138.0</ele><time>2026-04-07T17:01:28.999Z</time></trkpt><trkpt lat="37.38130144562527" lon="13.356344688900705"><ele>139.0</ele><time>2026-04-07T17:01:29.999Z</time></trkpt><trkpt lat="37.381044913113136" lon="13.356475229085076"><ele>139.0</ele><time>2026-04-07T17:01:30.999Z</time></trkpt><trkpt lat="37.380786770557776" lon="13.35662815753296"><ele>139.0</ele><time>2026-04-07T17:01:31.999Z</time></trkpt><trkpt lat="37.38051648992526" lon="13.356787859614347"><ele>141.5</ele><time>2026-04-07T17:01:32.999Z</time></trkpt><trkpt lat="37.380239440704855" lon="13.356950958418011"><ele>144.0</ele><time>2026-04-07T17:01:33.999Z</time></trkpt><trkpt lat="37.379950020373585" lon="13.357121436352994"><ele>144.0</ele><time>2026-04-07T17:01:34.999Z</time></trkpt><trkpt lat="37.379720468687665" lon="13.357264979333866"><ele>144.0</ele><time>2026-04-07T17:01:35.999Z</time></trkpt><trkpt lat="37.37954540305022" lon="13.35740566766868"><ele>145.0</ele><time>2026-04-07T17:01:36.999Z</time></trkpt><trkpt lat="37.37938641452338" lon="13.357504776580255"><ele>146.0</ele><time>2026-04-07T17:01:37.999Z</time></trkpt><trkpt lat="37.379244731263455" lon="13.357611268173848"><ele>147.0</ele><time>2026-04-07T17:01:38.999Z</time></trkpt><trkpt lat="37.37913326303056" lon="13.357751640493511"><ele>147.0</ele><time>2026-04-07T17:01:39.999Z</time></trkpt><trkpt lat="37.37905014550095" lon="13.357857567315705"><ele>147.0</ele><time>2026-04-07T17:01:41.999Z</time></trkpt><trkpt lat="37.37899284880753" lon="13.357933703775966"><ele>147.0</ele><time>2026-04-07T17:01:43.999Z</time></trkpt><trkpt lat="37.37883078770641" lon="13.357842319366524"><ele>147.0</ele><time>2026-04-07T17:01:46.999Z</time></trkpt><trkpt lat="37.37878138105782" lon="13.35776150056824"><ele>146.33333333333334</ele><time>2026-04-07T17:01:48.999Z</time></trkpt><trkpt lat="37.378723628564465" lon="13.3576874583034"><ele>145.66666666666666</ele><time>2026-04-07T17:01:49.999Z</time></trkpt><trkpt lat="37.37867174543999" lon="13.35763638370599"><ele>145.0</ele><time>2026-04-07T17:01:50.999Z</time></trkpt><trkpt lat="37.378641819637416" lon="13.357551313404668"><ele>144.33333333333331</ele><time>2026-04-07T17:01:53.999Z</time></trkpt><trkpt lat="37.37862346132816" lon="13.357470229000198"><ele>143.66666666666666</ele><time>2026-04-07T17:01:57Z</time></trkpt><trkpt lat="37.37861738271995" lon="13.357387551633645"><ele>143.0</ele><time>2026-04-07T17:02:01Z</time></trkpt><trkpt lat="37.37863885186799" lon="13.357260106880046"><ele>143.5</ele><time>2026-04-07T17:02:05Z</time></trkpt><trkpt lat="37.37865991911732" lon="13.357183156232612"><ele>144.0</ele><time>2026-04-07T17:02:06Z</time></trkpt><trkpt lat="37.37871472217459" lon="13.35708664396672"><ele>144.5</ele><time>2026-04-07T17:02:07Z</time></trkpt><trkpt lat="37.378760412735794" lon="13.35700981018414"><ele>145.0</ele><time>2026-04-07T17:02:08Z</time></trkpt><trkpt lat="37.37884251029876" lon="13.356955876894729"><ele>145.5</ele><time>2026-04-07T17:02:09Z</time></trkpt><trkpt lat="37.37890941360326" lon="13.356893418847166"><ele>146.0</ele><time>2026-04-07T17:02:12Z</time></trkpt><trkpt lat="37.37884874907727" lon="13.356944936330537"><ele>146.0</ele><time>2026-04-07T17:02:21Z</time></trkpt><trkpt lat="37.37892154818276" lon="13.356924261825935"><ele>146.0</ele><time>2026-04-07T17:02:27Z</time></trkpt><trkpt lat="37.37900327957111" lon="13.356921535523542"><ele>146.0</ele><time>2026-04-07T17:02:28Z</time></trkpt><trkpt lat="37.379143414412454" lon="13.356910786155666"><ele>146.0</ele><time>2026-04-07T17:02:29Z</time></trkpt><trkpt lat="37.37924501756771" lon="13.356902992439347"><ele>146.0</ele><time>2026-04-07T17:02:30Z</time></trkpt><trkpt lat="37.3791935805491" lon="13.357004556417275"><ele>146.0</ele><time>2026-04-07T17:02:31Z</time></trkpt><trkpt lat="37.379273342736305" lon="13.35707324827616"><ele>146.0</ele><time>2026-04-07T17:02:34Z</time></trkpt><trkpt lat="37.37956851678286" lon="13.356596267908005"><ele>146.0</ele><time>2026-04-07T17:02:35Z</time></trkpt><trkpt lat="37.379659114469206" lon="13.356554915992078"><ele>146.0</ele><time>2026-04-07T17:02:36Z</time></trkpt><trkpt lat="37.37979349824972" lon="13.356497277807081"><ele>146.0</ele><time>2026-04-07T17:02:37Z</time></trkpt><trkpt lat="37.37994853319247" lon="13.356416048590267"><ele>146.0</ele><time>2026-04-07T17:02:38Z</time></trkpt><trkpt lat="37.380123061652405" lon="13.356313694653057"><ele>145.75</ele><time>2026-04-07T17:02:39Z</time></trkpt><trkpt lat="37.380262945152154" lon="13.356235404794452"><ele>145.5</ele><time>2026-04-07T17:02:40Z</time></trkpt><trkpt lat="37.380371694961894" lon="13.356150793710999"><ele>145.25</ele><time>2026-04-07T17:02:41Z</time></trkpt><trkpt lat="37.380464173232056" lon="13.356089142271356"><ele>145.0</ele><time>2026-04-07T17:02:42Z</time></trkpt><trkpt lat="37.38055967797822" lon="13.356021284760377"><ele>144.8</ele><time>2026-04-07T17:02:42.999Z</time></trkpt><trkpt lat="37.380635063059955" lon="13.355957597648036"><ele>144.6</ele><time>2026-04-07T17:02:43.999Z</time></trkpt><trkpt lat="37.38070262385382" lon="13.355905374012735"><ele>144.4</ele><time>2026-04-07T17:02:44.999Z</time></trkpt><trkpt lat="37.380790403171666" lon="13.355862651029215"><ele>144.2</ele><time>2026-04-07T17:02:45.999Z</time></trkpt><trkpt lat="37.380867154233385" lon="13.35580403349796"><ele>144.0</ele><time>2026-04-07T17:02:46.999Z</time></trkpt><trkpt lat="37.38097652473501" lon="13.355733570333934"><ele>144.0</ele><time>2026-04-07T17:02:48.999Z</time></trkpt><trkpt lat="37.3810188594446" lon="13.35565310806581"><ele>144.0</ele><time>2026-04-07T17:02:50.999Z</time></trkpt><trkpt lat="37.38099068546156" lon="13.35556733351046"><ele>144.0</ele><time>2026-04-07T17:02:52.999Z</time></trkpt><trkpt lat="37.38095233621706" lon="13.35538776580901"><ele>144.0</ele><time>2026-04-07T17:02:54.999Z</time></trkpt><trkpt lat="37.380903147323885" lon="13.355248568877332"><ele>144.0</ele><time>2026-04-07T17:02:55.999Z</time></trkpt><trkpt lat="37.38084857409034" lon="13.355053057303483"><ele>145.6</ele><time>2026-04-07T17:02:56.999Z</time></trkpt><trkpt lat="37.38080241323361" lon="13.354885630452479"><ele>147.2</ele><time>2026-04-07T17:02:57.999Z</time></trkpt><trkpt lat="37.380787668910564" lon="13.354769791101546"><ele>148.79999999999998</ele><time>2026-04-07T17:02:58.999Z</time></trkpt><trkpt lat="37.380758623256455" lon="13.354662862988025"><ele>150.4</ele><time>2026-04-07T17:02:59.999Z</time></trkpt><trkpt lat="37.380719076296636" lon="13.354515890648758"><ele>152.0</ele><time>2026-04-07T17:03:00.999Z</time></trkpt><trkpt lat="37.380673525457766" lon="13.354346133446231"><ele>156.25</ele><time>2026-04-07T17:03:01.999Z</time></trkpt><trkpt lat="37.38061137062447" lon="13.354182985986686"><ele>160.5</ele><time>2026-04-07T17:03:02.999Z</time></trkpt><trkpt lat="37.38057092233924" lon="13.354030541504239"><ele>164.75</ele><time>2026-04-07T17:03:03.999Z</time></trkpt><trkpt lat="37.380541673630276" lon="13.353916044433031"><ele>169.0</ele><time>2026-04-07T17:03:04.999Z</time></trkpt><trkpt lat="37.38050471425762" lon="13.353795599584036"><ele>172.6</ele><time>2026-04-07T17:03:06.999Z</time></trkpt><trkpt lat="37.380372627469136" lon="13.353751519230553"><ele>176.2</ele><time>2026-04-07T17:03:08.999Z</time></trkpt><trkpt lat="37.38031514285429" lon="13.353707076231208"><ele>179.79999999999998</ele><time>2026-04-07T17:03:09.999Z</time></trkpt><trkpt lat="37.380249400903935" lon="13.353675630896884"><ele>183.39999999999998</ele><time>2026-04-07T17:03:10.999Z</time></trkpt><trkpt lat="37.38017448314372" lon="13.353631108638433"><ele>187.0</ele><time>2026-04-07T17:03:11.999Z</time></trkpt><trkpt lat="37.38008210322502" lon="13.353603595676757"><ele>187.0</ele><time>2026-04-07T17:03:12.999Z</time></trkpt><trkpt lat="37.379991827346046" lon="13.35357236581009"><ele>187.0</ele><time>2026-04-07T17:03:13.999Z</time></trkpt><trkpt lat="37.3798927381146" lon="13.353549374236847"><ele>187.0</ele><time>2026-04-07T17:03:14.999Z</time></trkpt><trkpt lat="37.3798169995789" lon="13.353514575260972"><ele>187.0</ele><time>2026-04-07T17:03:15.999Z</time></trkpt><trkpt lat="37.37974995665564" lon="13.353490085138212"><ele>187.0</ele><time>2026-04-07T17:03:16.999Z</time></trkpt><trkpt lat="37.379678334680094" lon="13.35343927320147"><ele>187.0</ele><time>2026-04-07T17:03:18.999Z</time></trkpt><trkpt lat="37.37965287206134" lon="13.353316048676035"><ele>187.83333333333334</ele><time>2026-04-07T17:03:20.999Z</time></trkpt><trkpt lat="37.37964264468936" lon="13.353226314628905"><ele>188.66666666666669</ele><time>2026-04-07T17:03:21.999Z</time></trkpt><trkpt lat="37.379630134610515" lon="13.353117504494612"><ele>189.5</ele><time>2026-04-07T17:03:22.999Z</time></trkpt><trkpt lat="37.37961761753905" lon="13.353017293744115"><ele>190.33333333333334</ele><time>2026-04-07T17:03:23.999Z</time></trkpt><trkpt lat="37.37960480887027" lon="13.352916591314592"><ele>191.16666666666666</ele><time>2026-04-07T17:03:25.999Z</time></trkpt><trkpt lat="37.37958603638722" lon="13.352837102412142"><ele>192.0</ele><time>2026-04-07T17:03:29.999Z</time></trkpt><trkpt lat="37.37946635922999" lon="13.352869705731457"><ele>193.2</ele><time>2026-04-07T17:03:30.999Z</time></trkpt><trkpt lat="37.37938383547618" lon="13.352908577426652"><ele>194.39999999999998</ele><time>2026-04-07T17:03:32.999Z</time></trkpt><trkpt lat="37.37929821510122" lon="13.352939076509921"><ele>195.60000000000002</ele><time>2026-04-07T17:03:34.999Z</time></trkpt><trkpt lat="37.37921894186347" lon="13.352911200309391"><ele>196.8</ele><time>2026-04-07T17:03:35.999Z</time></trkpt><trkpt lat="37.37910393988729" lon="13.352932352412315"><ele>198.0</ele><time>2026-04-07T17:03:36.999Z</time></trkpt><trkpt lat="37.378958176899914" lon="13.352959162313692"><ele>197.33333333333331</ele><time>2026-04-07T17:03:37.999Z</time></trkpt><trkpt lat="37.378770287595394" lon="13.352994655574872"><ele>196.66666666666666</ele><time>2026-04-07T17:03:38.999Z</time></trkpt><trkpt lat="37.378568670493856" lon="13.353030119141138"><ele>196.0</ele><time>2026-04-07T17:03:39.999Z</time></trkpt><trkpt lat="37.37836887722422" lon="13.353052387568937"><ele>196.0</ele><time>2026-04-07T17:03:40.999Z</time></trkpt><trkpt lat="37.378147036088734" lon="13.35307079572102"><ele>196.0</ele><time>2026-04-07T17:03:41.999Z</time></trkpt><trkpt lat="37.37788679873881" lon="13.353093184598963"><ele>194.5</ele><time>2026-04-07T17:03:42.999Z</time></trkpt><trkpt lat="37.37759997211562" lon="13.353120297639038"><ele>193.0</ele><time>2026-04-07T17:03:43.999Z</time></trkpt><trkpt lat="37.377287575597514" lon="13.353153591747446"><ele>190.5</ele><time>2026-04-07T17:03:44.999Z</time></trkpt><trkpt lat="37.37698139272679" lon="13.35318452520142"><ele>188.0</ele><time>2026-04-07T17:03:45.999Z</time></trkpt><trkpt lat="37.376728794728514" lon="13.353208760294915"><ele>188.0</ele><time>2026-04-07T17:03:46.999Z</time></trkpt><trkpt lat="37.37651269957467" lon="13.353250310785889"><ele>188.0</ele><time>2026-04-07T17:03:47.999Z</time></trkpt><trkpt lat="37.376307200451336" lon="13.35327015501214"><ele>188.0</ele><time>2026-04-07T17:03:48.999Z</time></trkpt><trkpt lat="37.37611411192498" lon="13.353277589916663"><ele>188.5</ele><time>2026-04-07T17:03:49.999Z</time></trkpt><trkpt lat="37.375944362798535" lon="13.35332903086421"><ele>189.0</ele><time>2026-04-07T17:03:50.999Z</time></trkpt><trkpt lat="37.375805394909825" lon="13.353353248267128"><ele>189.5</ele><time>2026-04-07T17:03:51.999Z</time></trkpt><trkpt lat="37.37568833782712" lon="13.353388591856689"><ele>190.0</ele><time>2026-04-07T17:03:52.999Z</time></trkpt><trkpt lat="37.37557125566305" lon="13.35342836372952"><ele>189.0</ele><time>2026-04-07T17:03:53.999Z</time></trkpt><trkpt lat="37.37545850424304" lon="13.353468929060519"><ele>188.0</ele><time>2026-04-07T17:03:54.999Z</time></trkpt><trkpt lat="37.375361953390154" lon="13.353507455201116"><ele>187.0</ele><time>2026-04-07T17:03:55.999Z</time></trkpt><trkpt lat="37.37527713063635" lon="13.353543710017073"><ele>186.0</ele><time>2026-04-07T17:03:56.999Z</time></trkpt><trkpt lat="37.37518799547961" lon="13.353560304922016"><ele>185.0</ele><time>2026-04-07T17:03:57.999Z</time></trkpt><trkpt lat="37.37510005520387" lon="13.353623316217739"><ele>185.0</ele><time>2026-04-07T17:03:58.999Z</time></trkpt><trkpt lat="37.37499685539059" lon="13.353696133475124"><ele>185.0</ele><time>2026-04-07T17:03:59.999Z</time></trkpt><trkpt lat="37.37491014998963" lon="13.353784652782773"><ele>185.0</ele><time>2026-04-07T17:04:00.999Z</time></trkpt><trkpt lat="37.37482163938441" lon="13.353841876102841"><ele>185.0</ele><time>2026-04-07T17:04:01.999Z</time></trkpt><trkpt lat="37.37471099757092" lon="13.353939938517412"><ele>183.0</ele><time>2026-04-07T17:04:02.999Z</time></trkpt><trkpt lat="37.37456553841647" lon="13.354089505411546"><ele>181.0</ele><time>2026-04-07T17:04:04Z</time></trkpt><trkpt lat="37.3743928664273" lon="13.354226832203103"><ele>179.0</ele><time>2026-04-07T17:04:04.999Z</time></trkpt><trkpt lat="37.374244097209996" lon="13.35434717148633"><ele>179.0</ele><time>2026-04-07T17:04:05.999Z</time></trkpt><trkpt lat="37.37411335287448" lon="13.354417344737561"><ele>179.0</ele><time>2026-04-07T17:04:06.999Z</time></trkpt><trkpt lat="37.37398990857693" lon="13.354499095027865"><ele>179.0</ele><time>2026-04-07T17:04:07.999Z</time></trkpt><trkpt lat="37.37385945811774" lon="13.354596402819848"><ele>179.0</ele><time>2026-04-07T17:04:08.999Z</time></trkpt><trkpt lat="37.373753685081915" lon="13.354669355940661"><ele>176.66666666666666</ele><time>2026-04-07T17:04:09.999Z</time></trkpt><trkpt lat="37.373629736020824" lon="13.354732249633146"><ele>174.33333333333334</ele><time>2026-04-07T17:04:10.999Z</time></trkpt><trkpt lat="37.37350634273893" lon="13.354850257197073"><ele>172.0</ele><time>2026-04-07T17:04:12Z</time></trkpt><trkpt lat="37.37332285391752" lon="13.355017207614834"><ele>172.0</ele><time>2026-04-07T17:04:13Z</time></trkpt><trkpt lat="37.373146440652896" lon="13.355206298838045"><ele>172.0</ele><time>2026-04-07T17:04:14Z</time></trkpt><trkpt lat="37.373059483568554" lon="13.355316485454585"><ele>172.0</ele><time>2026-04-07T17:04:15Z</time></trkpt><trkpt lat="37.37296726682318" lon="13.355357578211349"><ele>171.0</ele><time>2026-04-07T17:04:16Z</time></trkpt><trkpt lat="37.37286775204124" lon="13.355385226084453"><ele>170.0</ele><time>2026-04-07T17:04:17Z</time></trkpt><trkpt lat="37.37273600852832" lon="13.355377982651712"><ele>169.0</ele><time>2026-04-07T17:04:18Z</time></trkpt><trkpt lat="37.37255085560222" lon="13.355352331417999"><ele>168.0</ele><time>2026-04-07T17:04:19Z</time></trkpt><trkpt lat="37.372404917003855" lon="13.355331918587877"><ele>168.0</ele><time>2026-04-07T17:04:20Z</time></trkpt><trkpt lat="37.372308822454244" lon="13.355321255513456"><ele>168.0</ele><time>2026-04-07T17:04:21Z</time></trkpt><trkpt lat="37.372224548613495" lon="13.355319613216693"><ele>168.0</ele><time>2026-04-07T17:04:22Z</time></trkpt><trkpt lat="37.372134252253325" lon="13.355347227666693"><ele>168.0</ele><time>2026-04-07T17:04:23Z</time></trkpt><trkpt lat="37.37208700087056" lon="13.355410737729496"><ele>168.0</ele><time>2026-04-07T17:04:24Z</time></trkpt><trkpt lat="37.37205533391344" lon="13.355483595184552"><ele>168.0</ele><time>2026-04-07T17:04:25Z</time></trkpt><trkpt lat="37.37204913745044" lon="13.355599682725426"><ele>164.66666666666666</ele><time>2026-04-07T17:04:26Z</time></trkpt><trkpt lat="37.37203277675864" lon="13.355701575650894"><ele>161.33333333333334</ele><time>2026-04-07T17:04:27Z</time></trkpt><trkpt lat="37.37200894081198" lon="13.355782771143907"><ele>158.0</ele><time>2026-04-07T17:04:28Z</time></trkpt><trkpt lat="37.37199379459908" lon="13.355889744620683"><ele>154.66666666666669</ele><time>2026-04-07T17:04:29Z</time></trkpt><trkpt lat="37.37197825934229" lon="13.355994029669272"><ele>151.33333333333334</ele><time>2026-04-07T17:04:30Z</time></trkpt><trkpt lat="37.37196146613499" lon="13.356086542297708"><ele>148.0</ele><time>2026-04-07T17:04:31Z</time></trkpt><trkpt lat="37.371951781124814" lon="13.356208259844855"><ele>148.0</ele><time>2026-04-07T17:04:32Z</time></trkpt><trkpt lat="37.37188381340829" lon="13.356336337855545"><ele>148.0</ele><time>2026-04-07T17:04:33Z</time></trkpt><trkpt lat="37.37180505716168" lon="13.356417512636858"><ele>148.0</ele><time>2026-04-07T17:04:34Z</time></trkpt><trkpt lat="37.37171733315431" lon="13.356465104955882"><ele>148.0</ele><time>2026-04-07T17:04:35Z</time></trkpt><trkpt lat="37.37158464761224" lon="13.356535962158835"><ele>146.33333333333334</ele><time>2026-04-07T17:04:36Z</time></trkpt><trkpt lat="37.37140698903592" lon="13.356632327655868"><ele>144.66666666666666</ele><time>2026-04-07T17:04:37Z</time></trkpt><trkpt lat="37.37123593562678" lon="13.356730464576613"><ele>143.0</ele><time>2026-04-07T17:04:38Z</time></trkpt><trkpt lat="37.371118810505514" lon="13.35679505728898"><ele>143.0</ele><time>2026-04-07T17:04:39Z</time></trkpt><trkpt lat="37.37096936720519" lon="13.356798496968603"><ele>143.0</ele><time>2026-04-07T17:04:40Z</time></trkpt><trkpt lat="37.37083307686526" lon="13.356800129717065"><ele>143.0</ele><time>2026-04-07T17:04:41Z</time></trkpt><trkpt lat="37.37072128755677" lon="13.356797995449222"><ele>143.0</ele><time>2026-04-07T17:04:41.999Z</time></trkpt><trkpt lat="37.37061204760309" lon="13.356793288002482"><ele>142.6</ele><time>2026-04-07T17:04:42.999Z</time></trkpt><trkpt lat="37.37049026323877" lon="13.356783065259913"><ele>142.20000000000002</ele><time>2026-04-07T17:04:43.999Z</time></trkpt><trkpt lat="37.37036246920632" lon="13.356764804378013"><ele>141.8</ele><time>2026-04-07T17:04:45.999Z</time></trkpt><trkpt lat="37.37029579538978" lon="13.356750478905077"><ele>141.4</ele><time>2026-04-07T17:04:46.999Z</time></trkpt><trkpt lat="37.37017110330842" lon="13.35672571562094"><ele>141.0</ele><time>2026-04-07T17:04:48.999Z</time></trkpt><trkpt lat="37.370108528860996" lon="13.356672674357576"><ele>141.0</ele><time>2026-04-07T17:04:50.999Z</time></trkpt><trkpt lat="37.37013498767275" lon="13.35656153717928"><ele>141.0</ele><time>2026-04-07T17:04:52.999Z</time></trkpt><trkpt lat="37.370168902434415" lon="13.356489007010948"><ele>141.0</ele><time>2026-04-07T17:04:53.999Z</time></trkpt><trkpt lat="37.37023849502516" lon="13.35639086251709"><ele>141.0</ele><time>2026-04-07T17:04:55.999Z</time></trkpt><trkpt lat="37.37031092568293" lon="13.3562837165449"><ele>141.0</ele><time>2026-04-07T17:04:57.999Z</time></trkpt><trkpt lat="37.37036528578136" lon="13.356221279836555"><ele>141.0</ele><time>2026-04-07T17:04:58.999Z</time></trkpt><trkpt lat="37.37041978162161" lon="13.356160977601991"><ele>141.33333333333334</ele><time>2026-04-07T17:05:00.999Z</time></trkpt><trkpt lat="37.37046809293507" lon="13.35610314480612"><ele>141.66666666666666</ele><time>2026-04-07T17:05:02.999Z</time></trkpt><trkpt lat="37.370498520693005" lon="13.355999775148677"><ele>142.0</ele><time>2026-04-07T17:05:04.999Z</time></trkpt><trkpt lat="37.37055489489557" lon="13.355958442154469"><ele>142.33333333333331</ele><time>2026-04-07T17:05:06.999Z</time></trkpt><trkpt lat="37.3706202358094" lon="13.355851365430578"><ele>142.66666666666666</ele><time>2026-04-07T17:05:08.999Z</time></trkpt><trkpt lat="37.37067435138813" lon="13.355783223724549"><ele>143.0</ele><time>2026-04-07T17:05:09.999Z</time></trkpt><trkpt lat="37.37073426910626" lon="13.35570945492578"><ele>142.0</ele><time>2026-04-07T17:05:10.999Z</time></trkpt><trkpt lat="37.370795518213946" lon="13.355627735023006"><ele>141.0</ele><time>2026-04-07T17:05:11.999Z</time></trkpt><trkpt lat="37.37084491425069" lon="13.355542850678987"><ele>140.0</ele><time>2026-04-07T17:05:12.999Z</time></trkpt><trkpt lat="37.37085810890186" lon="13.355440770542955"><ele>139.0</ele><time>2026-04-07T17:05:13.999Z</time></trkpt><trkpt lat="37.37086344795809" lon="13.355337440169336"><ele>138.0</ele><time>2026-04-07T17:05:14.999Z</time></trkpt><trkpt lat="37.37085267342876" lon="13.355217556027556"><ele>137.0</ele><time>2026-04-07T17:05:15.999Z</time></trkpt><trkpt lat="37.370852751675955" lon="13.355132825862338"><ele>135.16666666666666</ele><time>2026-04-07T17:05:16.999Z</time></trkpt><trkpt lat="37.3708529222297" lon="13.35504877344271"><ele>133.33333333333331</ele><time>2026-04-07T17:05:17.999Z</time></trkpt><trkpt lat="37.370850808686406" lon="13.354959859392286"><ele>131.5</ele><time>2026-04-07T17:05:18.999Z</time></trkpt><trkpt lat="37.37084143976568" lon="13.354862024502934"><ele>129.66666666666666</ele><time>2026-04-07T17:05:19.999Z</time></trkpt><trkpt lat="37.37080972633888" lon="13.354769740543876"><ele>127.83333333333333</ele><time>2026-04-07T17:05:20.999Z</time></trkpt><trkpt lat="37.3707656191796" lon="13.354700347921098"><ele>126.0</ele><time>2026-04-07T17:05:21.999Z</time></trkpt><trkpt lat="37.37070657334504" lon="13.354622833665823"><ele>124.6</ele><time>2026-04-07T17:05:22.999Z</time></trkpt><trkpt lat="37.37065593237583" lon="13.354556265690581"><ele>123.19999999999999</ele><time>2026-04-07T17:05:23.999Z</time></trkpt><trkpt lat="37.37062955212715" lon="13.35440478760997"><ele>121.80000000000001</ele><time>2026-04-07T17:05:25.999Z</time></trkpt><trkpt lat="37.37062847863348" lon="13.354291108888466"><ele>120.4</ele><time>2026-04-07T17:05:26.999Z</time></trkpt><trkpt lat="37.37061273899529" lon="13.354190149034679"><ele>119.0</ele><time>2026-04-07T17:05:27.999Z</time></trkpt><trkpt lat="37.37058751575181" lon="13.35407010809721"><ele>118.99999999999999</ele><time>2026-04-07T17:05:28.999Z</time></trkpt><trkpt lat="37.370570497972935" lon="13.35396238315442"><ele>119.0</ele><time>2026-04-07T17:05:29.999Z</time></trkpt><trkpt lat="37.370586869539245" lon="13.353859735557396"><ele>119.0</ele><time>2026-04-07T17:05:30.999Z</time></trkpt><trkpt lat="37.37059866072802" lon="13.353734323445627"><ele>119.0</ele><time>2026-04-07T17:05:31.999Z</time></trkpt><trkpt lat="37.37059664751364" lon="13.353613595939018"><ele>118.99999999999999</ele><time>2026-04-07T17:05:32.999Z</time></trkpt><trkpt lat="37.370598327300954" lon="13.353526971705325"><ele>119.0</ele><time>2026-04-07T17:05:33.999Z</time></trkpt><trkpt lat="37.37061387229354" lon="13.353445548734403"><ele>115.80000000000001</ele><time>2026-04-07T17:05:34.999Z</time></trkpt><trkpt lat="37.37064389831652" lon="13.353344743617146"><ele>112.60000000000001</ele><time>2026-04-07T17:05:35.999Z</time></trkpt><trkpt lat="37.37066926168762" lon="13.353236040325493"><ele>109.4</ele><time>2026-04-07T17:05:36.999Z</time></trkpt><trkpt lat="37.370713690886525" lon="13.353142949953881"><ele>106.2</ele><time>2026-04-07T17:05:37.999Z</time></trkpt><trkpt lat="37.370762816047424" lon="13.353030610572107"><ele>103.0</ele><time>2026-04-07T17:05:38.999Z</time></trkpt><trkpt lat="37.370800135281144" lon="13.352929280641279"><ele>100.50000000000001</ele><time>2026-04-07T17:05:39.999Z</time></trkpt><trkpt lat="37.37081786961768" lon="13.352833311496864"><ele>98.0</ele><time>2026-04-07T17:05:40.999Z</time></trkpt><trkpt lat="37.37079738319203" lon="13.352749541224078"><ele>95.5</ele><time>2026-04-07T17:05:41.999Z</time></trkpt><trkpt lat="37.37075559110403" lon="13.352651150054083"><ele>93.0</ele><time>2026-04-07T17:05:43.999Z</time></trkpt><trkpt lat="37.37073416492516" lon="13.352472764699563"><ele>90.5</ele><time>2026-04-07T17:05:46.999Z</time></trkpt><trkpt lat="37.37072156420246" lon="13.352387771725391"><ele>88.0</ele><time>2026-04-07T17:05:47.999Z</time></trkpt><trkpt lat="37.37066121681095" lon="13.352288081516148"><ele>85.80000000000001</ele><time>2026-04-07T17:05:50.999Z</time></trkpt><trkpt lat="37.370710349757246" lon="13.352198603068972"><ele>83.60000000000001</ele><time>2026-04-07T17:05:52.999Z</time></trkpt><trkpt lat="37.37074263140838" lon="13.352109652439697"><ele>81.4</ele><time>2026-04-07T17:05:53.999Z</time></trkpt><trkpt lat="37.37078603137115" lon="13.351973522410493"><ele>79.2</ele><time>2026-04-07T17:05:54.999Z</time></trkpt><trkpt lat="37.3708363983954" lon="13.351833531860917"><ele>77.0</ele><time>2026-04-07T17:05:55.999Z</time></trkpt><trkpt lat="37.37086215073238" lon="13.351745350954038"><ele>77.0</ele><time>2026-04-07T17:05:56.999Z</time></trkpt><trkpt lat="37.370889610328" lon="13.351638356457734"><ele>77.0</ele><time>2026-04-07T17:05:57.999Z</time></trkpt><trkpt lat="37.37090055044733" lon="13.351544488179991"><ele>77.0</ele><time>2026-04-07T17:05:58.999Z</time></trkpt><trkpt lat="37.37087410238818" lon="13.35141421322087"><ele>77.0</ele><time>2026-04-07T17:06:00.999Z</time></trkpt><trkpt lat="37.370798978637474" lon="13.351364377867037"><ele>77.0</ele><time>2026-04-07T17:06:01.999Z</time></trkpt><trkpt lat="37.37073647856701" lon="13.35130062677281"><ele>77.0</ele><time>2026-04-07T17:06:02.999Z</time></trkpt><trkpt lat="37.37065792099536" lon="13.351231094075851"><ele>76.6</ele><time>2026-04-07T17:06:03.999Z</time></trkpt><trkpt lat="37.37058192790899" lon="13.351145383262315"><ele>76.2</ele><time>2026-04-07T17:06:05.999Z</time></trkpt><trkpt lat="37.37050042323768" lon="13.351096578228919"><ele>75.8</ele><time>2026-04-07T17:06:07.999Z</time></trkpt><trkpt lat="37.370411469849635" lon="13.350972090917077"><ele>75.4</ele><time>2026-04-07T17:06:10Z</time></trkpt><trkpt lat="37.37035800897047" lon="13.35091369592286"><ele>75.0</ele><time>2026-04-07T17:06:11Z</time></trkpt><trkpt lat="37.37027999768203" lon="13.35083771574833"><ele>72.5</ele><time>2026-04-07T17:06:13Z</time></trkpt><trkpt lat="37.3702265236968" lon="13.350776145500001"><ele>70.0</ele><time>2026-04-07T17:06:14Z</time></trkpt><trkpt lat="37.37016374460914" lon="13.35071944630458"><ele>67.5</ele><time>2026-04-07T17:06:15Z</time></trkpt><trkpt lat="37.37010465800012" lon="13.35066165455956"><ele>65.0</ele><time>2026-04-07T17:06:16Z</time></trkpt><trkpt lat="37.37003122246998" lon="13.350554163161085"><ele>62.5</ele><time>2026-04-07T17:06:18Z</time></trkpt><trkpt lat="37.36994677856219" lon="13.350512296347121"><ele>60.0</ele><time>2026-04-07T17:06:20Z</time></trkpt><trkpt lat="37.36987907032033" lon="13.350447822911713"><ele>60.0</ele><time>2026-04-07T17:06:22Z</time></trkpt><trkpt lat="37.369822494128734" lon="13.350403761814988"><ele>60.0</ele><time>2026-04-07T17:06:23Z</time></trkpt><trkpt lat="37.369759310194475" lon="13.350360255980629"><ele>60.0</ele><time>2026-04-07T17:06:24Z</time></trkpt><trkpt lat="37.369699646216624" lon="13.350307218686225"><ele>60.0</ele><time>2026-04-07T17:06:25Z</time></trkpt><trkpt lat="37.36964508932534" lon="13.35023905191711"><ele>60.0</ele><time>2026-04-07T17:06:26Z</time></trkpt><trkpt lat="37.36958274389182" lon="13.35018032535806"><ele>60.0</ele><time>2026-04-07T17:06:27Z</time></trkpt><trkpt lat="37.3695186284991" lon="13.350125857138536"><ele>60.0</ele><time>2026-04-07T17:06:28Z</time></trkpt><trkpt lat="37.369412071098004" lon="13.350029289111266"><ele>56.6</ele><time>2026-04-07T17:06:29Z</time></trkpt><trkpt lat="37.3693378268486" lon="13.349959432542697"><ele>53.2</ele><time>2026-04-07T17:06:30Z</time></trkpt><trkpt lat="37.36926121635746" lon="13.349883975925716"><ele>49.8</ele><time>2026-04-07T17:06:31Z</time></trkpt><trkpt lat="37.36918826852887" lon="13.349812991126793"><ele>46.4</ele><time>2026-04-07T17:06:32Z</time></trkpt><trkpt lat="37.36912550893897" lon="13.34970677142581"><ele>43.0</ele><time>2026-04-07T17:06:33Z</time></trkpt><trkpt lat="37.36904627320467" lon="13.349598550652594"><ele>43.0</ele><time>2026-04-07T17:06:34Z</time></trkpt><trkpt lat="37.368931973367175" lon="13.349516323323192"><ele>43.0</ele><time>2026-04-07T17:06:35Z</time></trkpt><trkpt lat="37.36886291534546" lon="13.349438579632787"><ele>43.0</ele><time>2026-04-07T17:06:36Z</time></trkpt><trkpt lat="37.36881997590571" lon="13.349357129851208"><ele>43.0</ele><time>2026-04-07T17:06:37Z</time></trkpt><trkpt lat="37.36876828810487" lon="13.349195936224117"><ele>43.0</ele><time>2026-04-07T17:06:39Z</time></trkpt><trkpt lat="37.3687463380703" lon="13.34909895087551"><ele>41.5</ele><time>2026-04-07T17:06:40Z</time></trkpt><trkpt lat="37.36875363104605" lon="13.348982371026022"><ele>40.0</ele><time>2026-04-07T17:06:42Z</time></trkpt><trkpt lat="37.3687657040062" lon="13.348900443517943"><ele>38.5</ele><time>2026-04-07T17:06:43Z</time></trkpt><trkpt lat="37.36878020021148" lon="13.348766190069078"><ele>37.0</ele><time>2026-04-07T17:06:45Z</time></trkpt><trkpt lat="37.368805994891666" lon="13.348646831428457"><ele>35.5</ele><time>2026-04-07T17:06:47Z</time></trkpt><trkpt lat="37.368811951608365" lon="13.34856538112064"><ele>34.0</ele><time>2026-04-07T17:06:49Z</time></trkpt><trkpt lat="37.36882512375766" lon="13.348483937566186"><ele>33.5</ele><time>2026-04-07T17:06:51Z</time></trkpt><trkpt lat="37.36884314412276" lon="13.34830460890666"><ele>33.0</ele><time>2026-04-07T17:06:53Z</time></trkpt><trkpt lat="37.368862611042196" lon="13.348137544302835"><ele>32.5</ele><time>2026-04-07T17:06:54Z</time></trkpt><trkpt lat="37.36888220587418" lon="13.347955646990401"><ele>32.0</ele><time>2026-04-07T17:06:55Z</time></trkpt><trkpt lat="37.36890807129415" lon="13.347839223851091"><ele>33.0</ele><time>2026-04-07T17:06:56Z</time></trkpt><trkpt lat="37.36892561947425" lon="13.347751327513757"><ele>34.0</ele><time>2026-04-07T17:06:57Z</time></trkpt><trkpt lat="37.36894774766697" lon="13.34763960090203"><ele>35.0</ele><time>2026-04-07T17:06:58Z</time></trkpt><trkpt lat="37.368960310373964" lon="13.347557695497201"><ele>36.0</ele><time>2026-04-07T17:06:59Z</time></trkpt><trkpt lat="37.368994943989804" lon="13.347467576587448"><ele>37.0</ele><time>2026-04-07T17:07:00Z</time></trkpt><trkpt lat="37.369050880295056" lon="13.347350578058373"><ele>38.0</ele><time>2026-04-07T17:07:00.999Z</time></trkpt><trkpt lat="37.369099933319255" lon="13.347255757143712"><ele>36.83333333333333</ele><time>2026-04-07T17:07:01.999Z</time></trkpt><trkpt lat="37.369143243327976" lon="13.347157250139466"><ele>35.666666666666664</ele><time>2026-04-07T17:07:02.999Z</time></trkpt><trkpt lat="37.369190077642294" lon="13.347047275100493"><ele>34.5</ele><time>2026-04-07T17:07:03.999Z</time></trkpt><trkpt lat="37.36921473001657" lon="13.346961900878787"><ele>33.333333333333336</ele><time>2026-04-07T17:07:04.999Z</time></trkpt><trkpt lat="37.369218782526616" lon="13.346856071653166"><ele>32.16666666666667</ele><time>2026-04-07T17:07:05.999Z</time></trkpt><trkpt lat="37.36920752490461" lon="13.346732585729248"><ele>31.0</ele><time>2026-04-07T17:07:06.999Z</time></trkpt><trkpt lat="37.36920027786685" lon="13.346557623031376"><ele>31.0</ele><time>2026-04-07T17:07:07.999Z</time></trkpt><trkpt lat="37.36921159445232" lon="13.346435963225492"><ele>31.0</ele><time>2026-04-07T17:07:08.999Z</time></trkpt><trkpt lat="37.36922804290518" lon="13.34629717372247"><ele>31.0</ele><time>2026-04-07T17:07:09.999Z</time></trkpt><trkpt lat="37.36925394835167" lon="13.346149314741764"><ele>31.0</ele><time>2026-04-07T17:07:10.999Z</time></trkpt><trkpt lat="37.36929154343261" lon="13.345984409320257"><ele>30.4</ele><time>2026-04-07T17:07:11.999Z</time></trkpt><trkpt lat="37.36933919172914" lon="13.345824270377674"><ele>29.8</ele><time>2026-04-07T17:07:12.999Z</time></trkpt><trkpt lat="37.369375135084724" lon="13.345730275439582"><ele>29.199999999999996</ele><time>2026-04-07T17:07:13.999Z</time></trkpt><trkpt lat="37.36943938211235" lon="13.345586838040592"><ele>28.599999999999998</ele><time>2026-04-07T17:07:15.999Z</time></trkpt><trkpt lat="37.369451577100016" lon="13.345463287143943"><ele>28.0</ele><time>2026-04-07T17:07:17.999Z</time></trkpt><trkpt lat="37.36947837863543" lon="13.345353658630698"><ele>27.4</ele><time>2026-04-07T17:07:18.999Z</time></trkpt><trkpt lat="37.36947560279647" lon="13.345262900224364"><ele>26.799999999999997</ele><time>2026-04-07T17:07:19.999Z</time></trkpt><trkpt lat="37.369475863912164" lon="13.345145546346263"><ele>26.2</ele><time>2026-04-07T17:07:20.999Z</time></trkpt><trkpt lat="37.36949290814114" lon="13.345047599515267"><ele>25.6</ele><time>2026-04-07T17:07:21.999Z</time></trkpt><trkpt lat="37.369537848499824" lon="13.344925156718952"><ele>25.0</ele><time>2026-04-07T17:07:23.999Z</time></trkpt><trkpt lat="37.36959902708937" lon="13.344811542231843"><ele>25.0</ele><time>2026-04-07T17:07:25.999Z</time></trkpt><trkpt lat="37.369636975469355" lon="13.344725946471579"><ele>25.0</ele><time>2026-04-07T17:07:26.999Z</time></trkpt><trkpt lat="37.36966582100455" lon="13.344634778413566"><ele>25.0</ele><time>2026-04-07T17:07:27.999Z</time></trkpt><trkpt lat="37.369694920259086" lon="13.344471895214491"><ele>25.0</ele><time>2026-04-07T17:07:29.999Z</time></trkpt><trkpt lat="37.36972483891349" lon="13.344355239250412"><ele>25.0</ele><time>2026-04-07T17:07:31.999Z</time></trkpt><trkpt lat="37.36973963142875" lon="13.344275233203888"><ele>25.500000000000004</ele><time>2026-04-07T17:07:33.999Z</time></trkpt><trkpt lat="37.369756048084035" lon="13.34417841147596"><ele>26.0</ele><time>2026-04-07T17:07:34.999Z</time></trkpt><trkpt lat="37.36977314140753" lon="13.34409431423788"><ele>26.5</ele><time>2026-04-07T17:07:35.999Z</time></trkpt><trkpt lat="37.36981925616503" lon="13.343946003460587"><ele>27.0</ele><time>2026-04-07T17:07:37.999Z</time></trkpt><trkpt lat="37.36985724145688" lon="13.3438574700483"><ele>27.500000000000004</ele><time>2026-04-07T17:07:38.999Z</time></trkpt><trkpt lat="37.369891252658185" lon="13.343780319154396"><ele>28.0</ele><time>2026-04-07T17:07:39.999Z</time></trkpt><trkpt lat="37.36992621724837" lon="13.343709928460212"><ele>27.000000000000004</ele><time>2026-04-07T17:07:40.999Z</time></trkpt><trkpt lat="37.36996686731338" lon="13.34363768438405"><ele>26.0</ele><time>2026-04-07T17:07:41.999Z</time></trkpt><trkpt lat="37.37004154652287" lon="13.343498753591007"><ele>25.0</ele><time>2026-04-07T17:07:43.999Z</time></trkpt><trkpt lat="37.37007385782714" lon="13.343422473666687"><ele>24.0</ele><time>2026-04-07T17:07:44.999Z</time></trkpt><trkpt lat="37.37011257230044" lon="13.343330743339738"><ele>23.0</ele><time>2026-04-07T17:07:45.999Z</time></trkpt><trkpt lat="37.37013710141147" lon="13.343230406350761"><ele>22.0</ele><time>2026-04-07T17:07:46.999Z</time></trkpt><trkpt lat="37.3701729610609" lon="13.343131559540856"><ele>22.0</ele><time>2026-04-07T17:07:47.999Z</time></trkpt><trkpt lat="37.3701997033178" lon="13.343051754131668"><ele>22.0</ele><time>2026-04-07T17:07:48.999Z</time></trkpt><trkpt lat="37.37024139439968" lon="13.342901941627135"><ele>22.0</ele><time>2026-04-07T17:07:50.999Z</time></trkpt><trkpt lat="37.37025339758137" lon="13.342804489973574"><ele>22.0</ele><time>2026-04-07T17:07:51.999Z</time></trkpt><trkpt lat="37.370253407802885" lon="13.342691419517502"><ele>22.0</ele><time>2026-04-07T17:07:52.999Z</time></trkpt><trkpt lat="37.370300220733185" lon="13.342637204761974"><ele>22.0</ele><time>2026-04-07T17:07:53.999Z</time></trkpt><trkpt lat="37.37035768619119" lon="13.342586276366553"><ele>22.400000000000002</ele><time>2026-04-07T17:07:54.999Z</time></trkpt><trkpt lat="37.37041524132697" lon="13.34245892780986"><ele>22.8</ele><time>2026-04-07T17:07:55.999Z</time></trkpt><trkpt lat="37.37046556535777" lon="13.342349326798512"><ele>23.2</ele><time>2026-04-07T17:07:56.999Z</time></trkpt><trkpt lat="37.37050494331223" lon="13.342287046030654"><ele>23.6</ele><time>2026-04-07T17:07:57.999Z</time></trkpt><trkpt lat="37.370565065897004" lon="13.342163785985882"><ele>24.0</ele><time>2026-04-07T17:07:59.999Z</time></trkpt><trkpt lat="37.370605887225004" lon="13.342094159130303"><ele>24.0</ele><time>2026-04-07T17:08:00.999Z</time></trkpt><trkpt lat="37.37065234293478" lon="13.342016781093093"><ele>24.0</ele><time>2026-04-07T17:08:01.999Z</time></trkpt><trkpt lat="37.370700941804614" lon="13.341933273650172"><ele>24.0</ele><time>2026-04-07T17:08:02.999Z</time></trkpt><trkpt lat="37.370775294313276" lon="13.341778003175166"><ele>24.0</ele><time>2026-04-07T17:08:04.999Z</time></trkpt><trkpt lat="37.370816176563764" lon="13.341687901974726"><ele>24.0</ele><time>2026-04-07T17:08:05.999Z</time></trkpt><trkpt lat="37.3708528935759" lon="13.34159102876391"><ele>24.0</ele><time>2026-04-07T17:08:06.999Z</time></trkpt><trkpt lat="37.370909821514346" lon="13.341439948321005"><ele>24.0</ele><time>2026-04-07T17:08:08.999Z</time></trkpt><trkpt lat="37.3709402592818" lon="13.341337687542682"><ele>24.0</ele><time>2026-04-07T17:08:09.999Z</time></trkpt><trkpt lat="37.37098103703075" lon="13.341221523736834"><ele>24.0</ele><time>2026-04-07T17:08:10.999Z</time></trkpt><trkpt lat="37.37104050815787" lon="13.341100262345185"><ele>24.0</ele><time>2026-04-07T17:08:11.999Z</time></trkpt><trkpt lat="37.37108303038256" lon="13.341004248254768"><ele>24.833333333333332</ele><time>2026-04-07T17:08:12.999Z</time></trkpt><trkpt lat="37.37116259060886" lon="13.340930181414198"><ele>25.666666666666664</ele><time>2026-04-07T17:08:15Z</time></trkpt><trkpt lat="37.37122488721021" lon="13.34088176204028"><ele>26.5</ele><time>2026-04-07T17:08:16Z</time></trkpt><trkpt lat="37.371270697290946" lon="13.340821242741878"><ele>27.333333333333332</ele><time>2026-04-07T17:08:17Z</time></trkpt><trkpt lat="37.3713363225643" lon="13.340696806473598"><ele>28.166666666666664</ele><time>2026-04-07T17:08:19Z</time></trkpt><trkpt lat="37.37138515625601" lon="13.340637484985688"><ele>29.0</ele><time>2026-04-07T17:08:20Z</time></trkpt><trkpt lat="37.37146434799989" lon="13.3405614948949"><ele>28.166666666666664</ele><time>2026-04-07T17:08:21Z</time></trkpt><trkpt lat="37.37151872501684" lon="13.34051033548525"><ele>27.333333333333332</ele><time>2026-04-07T17:08:22Z</time></trkpt><trkpt lat="37.37158418109249" lon="13.340431234552028"><ele>26.5</ele><time>2026-04-07T17:08:24Z</time></trkpt><trkpt lat="37.371612342970046" lon="13.340348723581085"><ele>25.666666666666664</ele><time>2026-04-07T17:08:26Z</time></trkpt><trkpt lat="37.371628322942684" lon="13.340263428174575"><ele>24.833333333333332</ele><time>2026-04-07T17:08:27Z</time></trkpt><trkpt lat="37.37166695007761" lon="13.340126389027434"><ele>24.0</ele><time>2026-04-07T17:08:29Z</time></trkpt><trkpt lat="37.37170709936417" lon="13.340005840783038"><ele>24.0</ele><time>2026-04-07T17:08:31Z</time></trkpt><trkpt lat="37.371735300351226" lon="13.339921291982057"><ele>24.0</ele><time>2026-04-07T17:08:32Z</time></trkpt><trkpt lat="37.37175491103203" lon="13.339841418790794"><ele>24.0</ele><time>2026-04-07T17:08:33Z</time></trkpt><trkpt lat="37.3718035789659" lon="13.339699104493869"><ele>24.0</ele><time>2026-04-07T17:08:35Z</time></trkpt><trkpt lat="37.371843093811826" lon="13.339603640781018"><ele>24.0</ele><time>2026-04-07T17:08:37Z</time></trkpt><trkpt lat="37.371896359709005" lon="13.339542285603196"><ele>24.0</ele><time>2026-04-07T17:08:39Z</time></trkpt><trkpt lat="37.37199022271202" lon="13.339411158231972"><ele>23.333333333333332</ele><time>2026-04-07T17:08:41Z</time></trkpt><trkpt lat="37.372011150540025" lon="13.339332979431289"><ele>22.666666666666668</ele><time>2026-04-07T17:08:42Z</time></trkpt><trkpt lat="37.3720370689179" lon="13.339242285428606"><ele>22.0</ele><time>2026-04-07T17:08:44Z</time></trkpt><trkpt lat="37.37203626044231" lon="13.339150101395681"><ele>21.333333333333336</ele><time>2026-04-07T17:08:46Z</time></trkpt><trkpt lat="37.3720263639854" lon="13.33905244375945"><ele>20.666666666666668</ele><time>2026-04-07T17:08:48Z</time></trkpt><trkpt lat="37.372013049900126" lon="13.338921064700113"><ele>20.0</ele><time>2026-04-07T17:08:50Z</time></trkpt><trkpt lat="37.372001315275156" lon="13.338805271214124"><ele>18.75</ele><time>2026-04-07T17:08:52Z</time></trkpt><trkpt lat="37.37175878039272" lon="13.338726734419687"><ele>17.5</ele><time>2026-04-07T17:08:54Z</time></trkpt><trkpt lat="37.37167103623662" lon="13.338686046239756"><ele>16.25</ele><time>2026-04-07T17:08:55Z</time></trkpt><trkpt lat="37.3715967693539" lon="13.338654355028211"><ele>15.0</ele><time>2026-04-07T17:08:56Z</time></trkpt><trkpt lat="37.37155678423182" lon="13.338580037705134"><ele>15.0</ele><time>2026-04-07T17:08:57Z</time></trkpt><trkpt lat="37.3714142085418" lon="13.338620133900163"><ele>15.0</ele><time>2026-04-07T17:09:04Z</time></trkpt><trkpt lat="37.37136322362111" lon="13.338675151349099"><ele>15.0</ele><time>2026-04-07T17:09:06Z</time></trkpt><trkpt lat="37.371287359093444" lon="13.338746525531814"><ele>15.0</ele><time>2026-04-07T17:09:09Z</time></trkpt><trkpt lat="37.37123645355484" lon="13.33879419166721"><ele>15.0</ele><time>2026-04-07T17:09:11Z</time></trkpt><trkpt lat="37.37118236087111" lon="13.338844842079189"><ele>15.0</ele><time>2026-04-07T17:09:13Z</time></trkpt><trkpt lat="37.37113179902345" lon="13.338892186355581"><ele>14.2</ele><time>2026-04-07T17:09:14Z</time></trkpt><trkpt lat="37.371078686307186" lon="13.338941657781035"><ele>13.4</ele><time>2026-04-07T17:09:15Z</time></trkpt><trkpt lat="37.37099487750529" lon="13.339033211885017"><ele>12.600000000000001</ele><time>2026-04-07T17:09:16Z</time></trkpt><trkpt lat="37.37089543173978" lon="13.339092544251944"><ele>11.8</ele><time>2026-04-07T17:09:17Z</time></trkpt><trkpt lat="37.370818604212296" lon="13.33915223363114"><ele>11.0</ele><time>2026-04-07T17:09:18.999Z</time></trkpt><trkpt lat="37.37073157552684" lon="13.339219804967057"><ele>11.0</ele><time>2026-04-07T17:09:20.999Z</time></trkpt><trkpt lat="37.37067554730794" lon="13.339265224160629"><ele>11.0</ele><time>2026-04-07T17:09:22.999Z</time></trkpt><trkpt lat="37.37059350664907" lon="13.339331730510517"><ele>11.0</ele><time>2026-04-07T17:09:23.999Z</time></trkpt><trkpt lat="37.370500997903704" lon="13.33940688712665"><ele>11.0</ele><time>2026-04-07T17:09:25.999Z</time></trkpt><trkpt lat="37.37044709606163" lon="13.339449381042979"><ele>11.0</ele><time>2026-04-07T17:09:26.999Z</time></trkpt><trkpt lat="37.37037107543007" lon="13.339509312746765"><ele>11.0</ele><time>2026-04-07T17:09:28.999Z</time></trkpt><trkpt lat="37.37029122334076" lon="13.339572265086339"><ele>11.0</ele><time>2026-04-07T17:09:30.999Z</time></trkpt><trkpt lat="37.37021640325162" lon="13.339631250325416"><ele>11.0</ele><time>2026-04-07T17:09:32.999Z</time></trkpt><trkpt lat="37.37015383417147" lon="13.339680577345941"><ele>11.0</ele><time>2026-04-07T17:09:34.999Z</time></trkpt><trkpt lat="37.3700650800384" lon="13.339738958465405"><ele>11.0</ele><time>2026-04-07T17:09:36.999Z</time></trkpt><trkpt lat="37.36998147623021" lon="13.339812570065924"><ele>11.0</ele><time>2026-04-07T17:09:37.999Z</time></trkpt><trkpt lat="37.36984989269496" lon="13.33991613288404"><ele>11.0</ele><time>2026-04-07T17:09:38.999Z</time></trkpt><trkpt lat="37.36973298036902" lon="13.340020635530022"><ele>11.0</ele><time>2026-04-07T17:09:39.999Z</time></trkpt><trkpt lat="37.369643405678914" lon="13.340086115503807"><ele>11.0</ele><time>2026-04-07T17:09:40.999Z</time></trkpt><trkpt lat="37.369567619874175" lon="13.34012860818371"><ele>11.0</ele><time>2026-04-07T17:09:41.999Z</time></trkpt><trkpt lat="37.36948178914318" lon="13.340195355269174"><ele>11.0</ele><time>2026-04-07T17:09:43.999Z</time></trkpt><trkpt lat="37.369401146952455" lon="13.340258067368236"><ele>10.833333333333332</ele><time>2026-04-07T17:09:48.999Z</time></trkpt><trkpt lat="37.369339364541084" lon="13.340306113012826"><ele>10.666666666666666</ele><time>2026-04-07T17:09:49.999Z</time></trkpt><trkpt lat="37.36926855080785" lon="13.340357257714267"><ele>10.5</ele><time>2026-04-07T17:09:50.999Z</time></trkpt><trkpt lat="37.36915655763666" lon="13.34043398395471"><ele>10.333333333333334</ele><time>2026-04-07T17:09:51.999Z</time></trkpt><trkpt lat="37.36907733979785" lon="13.34047857676503"><ele>10.166666666666668</ele><time>2026-04-07T17:09:52.999Z</time></trkpt><trkpt lat="37.36901274803276" lon="13.34050907842373"><ele>10.0</ele><time>2026-04-07T17:09:53.999Z</time></trkpt><trkpt lat="37.36892903842187" lon="13.340544778453923"><ele>10.0</ele><time>2026-04-07T17:09:55.999Z</time></trkpt><trkpt lat="37.368865292842614" lon="13.34057207081387"><ele>10.0</ele><time>2026-04-07T17:09:56.999Z</time></trkpt><trkpt lat="37.368803230785126" lon="13.340595596636643"><ele>10.0</ele><time>2026-04-07T17:09:57.999Z</time></trkpt><trkpt lat="37.368710582956254" lon="13.340624890483513"><ele>10.0</ele><time>2026-04-07T17:09:59.999Z</time></trkpt><trkpt lat="37.36864637928609" lon="13.340645190660087"><ele>10.0</ele><time>2026-04-07T17:10:01.999Z</time></trkpt><trkpt lat="37.36855753263095" lon="13.340676262071202"><ele>10.0</ele><time>2026-04-07T17:10:06.999Z</time></trkpt><trkpt lat="37.368484161960936" lon="13.340708310444075"><ele>10.0</ele><time>2026-04-07T17:10:09.999Z</time></trkpt><trkpt lat="37.368424412578484" lon="13.340734695652959"><ele>10.0</ele><time>2026-04-07T17:10:11.999Z</time></trkpt><trkpt lat="37.368377017971135" lon="13.340803486369953"><ele>10.0</ele><time>2026-04-07T17:10:15.999Z</time></trkpt><trkpt lat="37.368303869709614" lon="13.340832192858784"><ele>10.0</ele><time>2026-04-07T17:10:17.999Z</time></trkpt><trkpt lat="37.36823327257946" lon="13.340839608797706"><ele>10.0</ele><time>2026-04-07T17:10:19.999Z</time></trkpt><trkpt lat="37.36814406327006" lon="13.340878103500797"><ele>10.0</ele><time>2026-04-07T17:10:23Z</time></trkpt><trkpt lat="37.368079042921565" lon="13.340924203172195"><ele>10.0</ele><time>2026-04-07T17:10:25Z</time></trkpt><trkpt lat="37.367977928510236" lon="13.340965002146218"><ele>10.0</ele><time>2026-04-07T17:10:27Z</time></trkpt><trkpt lat="37.36788446723854" lon="13.341012285596497"><ele>10.0</ele><time>2026-04-07T17:10:29Z</time></trkpt><trkpt lat="37.367772792799634" lon="13.341070224056887"><ele>10.0</ele><time>2026-04-07T17:10:31Z</time></trkpt><trkpt lat="37.36766501350741" lon="13.34112385079663"><ele>10.0</ele><time>2026-04-07T17:10:32Z</time></trkpt><trkpt lat="37.36756107065415" lon="13.341155480379909"><ele>10.0</ele><time>2026-04-07T17:10:33Z</time></trkpt><trkpt lat="37.36749050547468" lon="13.341112357952229"><ele>10.0</ele><time>2026-04-07T17:10:34Z</time></trkpt><trkpt lat="37.367411337414495" lon="13.341136110128943"><ele>10.0</ele><time>2026-04-07T17:10:39Z</time></trkpt><trkpt lat="37.367348426959516" lon="13.341130972430445"><ele>10.0</ele><time>2026-04-07T17:10:40Z</time></trkpt><trkpt lat="37.367235744653556" lon="13.341120365463766"><ele>10.0</ele><time>2026-04-07T17:10:42Z</time></trkpt><trkpt lat="37.36706009423698" lon="13.341089754815107"><ele>10.0</ele><time>2026-04-07T17:10:44Z</time></trkpt><trkpt lat="37.36691150109535" lon="13.34106183160282"><ele>10.0</ele><time>2026-04-07T17:10:45Z</time></trkpt><trkpt lat="37.366672345577676" lon="13.340988893450206"><ele>10.0</ele><time>2026-04-07T17:10:46Z</time></trkpt><trkpt lat="37.3665627188209" lon="13.340947714093767"><ele>10.0</ele><time>2026-04-07T17:10:47Z</time></trkpt><trkpt lat="37.36639519710437" lon="13.340907836954516"><ele>10.0</ele><time>2026-04-07T17:10:48Z</time></trkpt><trkpt lat="37.36629243484996" lon="13.34091879640619"><ele>10.0</ele><time>2026-04-07T17:10:49Z</time></trkpt><trkpt lat="37.36620837363562" lon="13.34091180637446"><ele>10.0</ele><time>2026-04-07T17:10:53Z</time></trkpt><trkpt lat="37.36607798834015" lon="13.340921614085133"><ele>10.0</ele><time>2026-04-07T17:10:55Z</time></trkpt><trkpt lat="37.36596934152545" lon="13.340929786632957"><ele>10.0</ele><time>2026-04-07T17:10:56Z</time></trkpt><trkpt lat="37.36586627878289" lon="13.340937225448931"><ele>10.0</ele><time>2026-04-07T17:10:58Z</time></trkpt><trkpt lat="37.365787825595575" lon="13.34094192439315"><ele>10.0</ele><time>2026-04-07T17:10:59Z</time></trkpt><trkpt lat="37.36568902971351" lon="13.340961430159108"><ele>10.0</ele><time>2026-04-07T17:11:00Z</time></trkpt><trkpt lat="37.36559916671727" lon="13.34098999496979"><ele>10.0</ele><time>2026-04-07T17:11:02Z</time></trkpt><trkpt lat="37.36557959943477" lon="13.341105315830953"><ele>10.0</ele><time>2026-04-07T17:11:03Z</time></trkpt><trkpt lat="37.36543878195077" lon="13.341057458412052"><ele>10.0</ele><time>2026-04-07T17:11:05Z</time></trkpt><trkpt lat="37.36537523972779" lon="13.341093956719073"><ele>10.0</ele><time>2026-04-07T17:11:06Z</time></trkpt><trkpt lat="37.36528957725427" lon="13.341147138953296"><ele>10.0</ele><time>2026-04-07T17:11:08Z</time></trkpt><trkpt lat="37.36521152099181" lon="13.34119612266189"><ele>9.8</ele><time>2026-04-07T17:11:10Z</time></trkpt><trkpt lat="37.36513487319278" lon="13.341243540613352"><ele>9.6</ele><time>2026-04-07T17:11:11Z</time></trkpt><trkpt lat="37.36505431794264" lon="13.341311541468318"><ele>9.4</ele><time>2026-04-07T17:11:12Z</time></trkpt><trkpt lat="37.36494079794826" lon="13.34126318541352"><ele>9.2</ele><time>2026-04-07T17:11:15Z</time></trkpt><trkpt lat="37.364866703909215" lon="13.341226533783367"><ele>9.0</ele><time>2026-04-07T17:11:16Z</time></trkpt><trkpt lat="37.36478996101448" lon="13.341180613633865"><ele>9.0</ele><time>2026-04-07T17:11:18Z</time></trkpt><trkpt lat="37.36472607923062" lon="13.341133717586796"><ele>9.0</ele><time>2026-04-07T17:11:20Z</time></trkpt><trkpt lat="37.36463967703981" lon="13.341067951533502"><ele>9.0</ele><time>2026-04-07T17:11:22Z</time></trkpt><trkpt lat="37.36455870852444" lon="13.340998395018865"><ele>9.0</ele><time>2026-04-07T17:11:24Z</time></trkpt><trkpt lat="37.36449033069299" lon="13.3409125334801"><ele>9.0</ele><time>2026-04-07T17:11:36.999Z</time></trkpt><trkpt lat="37.3644379195896" lon="13.340852251512576"><ele>9.0</ele><time>2026-04-07T17:11:40.999Z</time></trkpt><trkpt lat="37.36436041875778" lon="13.340805885664269"><ele>8.833333333333334</ele><time>2026-04-07T17:11:43.999Z</time></trkpt><trkpt lat="37.364310030655275" lon="13.340756620849234"><ele>8.666666666666666</ele><time>2026-04-07T17:11:46.999Z</time></trkpt><trkpt lat="37.364232996719515" lon="13.340718607677552"><ele>8.5</ele><time>2026-04-07T17:11:50.999Z</time></trkpt><trkpt lat="37.36418672317013" lon="13.340651523910669"><ele>8.333333333333332</ele><time>2026-04-07T17:11:54.999Z</time></trkpt><trkpt lat="37.364138919973136" lon="13.340599866739538"><ele>8.166666666666666</ele><time>2026-04-07T17:12:36Z</time></trkpt><trkpt lat="37.36420368439816" lon="13.340689456894527"><ele>8.0</ele><time>2026-04-07T17:12:47Z</time></trkpt><trkpt lat="37.36425627061888" lon="13.34076625435959"><ele>7.999999999999999</ele><time>2026-04-07T17:12:56Z</time></trkpt><trkpt lat="37.36434337266181" lon="13.340816234238037"><ele>8.0</ele><time>2026-04-07T17:13:04Z</time></trkpt><trkpt lat="37.3644088019834" lon="13.340842567641477"><ele>8.0</ele><time>2026-04-07T17:13:07Z</time></trkpt><trkpt lat="37.36445925562964" lon="13.340903904269151"><ele>8.0</ele><time>2026-04-07T17:13:10Z</time></trkpt><trkpt lat="37.36452331247774" lon="13.3409945906172"><ele>7.999999999999999</ele><time>2026-04-07T17:13:13Z</time></trkpt><trkpt lat="37.364512605521924" lon="13.34107310053701"><ele>8.0</ele><time>2026-04-07T17:13:18Z</time></trkpt><trkpt lat="37.3644722551673" lon="13.340977313156495"><ele>7.999999999999999</ele><time>2026-04-07T17:13:20Z</time></trkpt><trkpt lat="37.36444398963792" lon="13.340892218365015"><ele>8.0</ele><time>2026-04-07T17:13:22Z</time></trkpt><trkpt lat="37.36437714570802" lon="13.340820582964742"><ele>8.0</ele><time>2026-04-07T17:13:27Z</time></trkpt><trkpt lat="37.36424682141427" lon="13.340793311694561"><ele>8.0</ele><time>2026-04-07T17:14:00.999Z</time></trkpt><trkpt lat="37.36419499939299" lon="13.340732909003526"><ele>7.999999999999999</ele><time>2026-04-07T17:14:36Z</time></trkpt><trkpt lat="37.36425735947705" lon="13.340752813934946"><ele>8.0</ele><time>2026-04-07T17:14:43Z</time></trkpt><trkpt lat="37.36419395118736" lon="13.340739758204824"><ele>7.999999999999999</ele><time>2026-04-07T17:16:51Z</time></trkpt><trkpt lat="37.364146363302005" lon="13.340686956835603"><ele>8.0</ele><time>2026-04-07T17:17:00Z</time></trkpt><trkpt lat="37.364050222370935" lon="13.340680576227403"><ele>8.0</ele><time>2026-04-07T17:23:57Z</time></trkpt><trkpt lat="37.36415688733199" lon="13.340678687553936"><ele>8.0</ele><time>2026-04-07T17:24:04Z</time></trkpt><trkpt lat="37.364117079873566" lon="13.340547135638166"><ele>7.999999999999999</ele><time>2026-04-07T17:24:26.999Z</time></trkpt><trkpt lat="37.364057096328665" lon="13.340504489601827"><ele>8.0</ele><time>2026-04-07T17:24:27.999Z</time></trkpt><trkpt lat="37.36398754484664" lon="13.340477976001797"><ele>8.0</ele><time>2026-04-07T17:24:29.999Z</time></trkpt><trkpt lat="37.3639109011533" lon="13.340559323665076"><ele>8.0</ele><time>2026-04-07T17:24:31.999Z</time></trkpt><trkpt lat="37.36382886708329" lon="13.340658662534015"><ele>8.0</ele><time>2026-04-07T17:24:33.999Z</time></trkpt><trkpt lat="37.36376173994976" lon="13.34067463912131"><ele>8.0</ele><time>2026-04-07T17:24:35.999Z</time></trkpt><trkpt lat="37.36372139149003" lon="13.34059813818194"><ele>8.0</ele><time>2026-04-07T17:24:37.999Z</time></trkpt><trkpt lat="37.36359730036485" lon="13.340511249096057"><ele>8.833333333333332</ele><time>2026-04-07T17:24:40.999Z</time></trkpt><trkpt lat="37.36352916662783" lon="13.34045405491461"><ele>9.666666666666666</ele><time>2026-04-07T17:24:41.999Z</time></trkpt><trkpt lat="37.36346984580553" lon="13.340427476053735"><ele>10.5</ele><time>2026-04-07T17:24:42.999Z</time></trkpt><trkpt lat="37.36353676121557" lon="13.34045729876183"><ele>11.333333333333332</ele><time>2026-04-07T17:24:54.999Z</time></trkpt><trkpt lat="37.363624650258885" lon="13.340549558984288"><ele>12.166666666666666</ele><time>2026-04-07T17:24:56.999Z</time></trkpt><trkpt lat="37.36372060258703" lon="13.340597543314777"><ele>13.0</ele><time>2026-04-07T17:24:58.999Z</time></trkpt><trkpt lat="37.363689873541404" lon="13.340776826601628"><ele>12.999999999999998</ele><time>2026-04-07T17:25:03Z</time></trkpt><trkpt lat="37.36364608777289" lon="13.340873205997475"><ele>13.0</ele><time>2026-04-07T17:25:05Z</time></trkpt><trkpt lat="37.36361936617081" lon="13.34095831238094"><ele>13.0</ele><time>2026-04-07T17:25:08Z</time></trkpt><trkpt lat="37.36355368237241" lon="13.340945867910419"><ele>13.0</ele><time>2026-04-07T17:25:10Z</time></trkpt><trkpt lat="37.363494281453384" lon="13.340974034162297"><ele>12.999999999999998</ele><time>2026-04-07T17:25:12Z</time></trkpt><trkpt lat="37.363431024067566" lon="13.34104069752772"><ele>13.0</ele><time>2026-04-07T17:25:14Z</time></trkpt><trkpt lat="37.363381465905434" lon="13.341162285037418"><ele>13.0</ele><time>2026-04-07T17:25:16Z</time></trkpt><trkpt lat="37.36332599946466" lon="13.341226745486622"><ele>13.0</ele><time>2026-04-07T17:25:18Z</time></trkpt><trkpt lat="37.36324158105473" lon="13.341340294124105"><ele>13.0</ele><time>2026-04-07T17:25:20Z</time></trkpt><trkpt lat="37.36319972112029" lon="13.341436106357998"><ele>13.0</ele><time>2026-04-07T17:25:22Z</time></trkpt><trkpt lat="37.363132488000225" lon="13.341517697984118"><ele>13.0</ele><time>2026-04-07T17:25:24Z</time></trkpt><trkpt lat="37.36305688815916" lon="13.341526680747238"><ele>12.999999999999998</ele><time>2026-04-07T17:25:26Z</time></trkpt><trkpt lat="37.36299379099417" lon="13.341550622080492"><ele>13.0</ele><time>2026-04-07T17:25:27Z</time></trkpt><trkpt lat="37.36290212067528" lon="13.341598848605488"><ele>13.0</ele><time>2026-04-07T17:25:29Z</time></trkpt><trkpt lat="37.36283471604367" lon="13.341677250373202"><ele>13.0</ele><time>2026-04-07T17:25:32Z</time></trkpt><trkpt lat="37.36273689982731" lon="13.341717799643428"><ele>12.999999999999998</ele><time>2026-04-07T17:25:35Z</time></trkpt><trkpt lat="37.36268109538287" lon="13.341756380778554"><ele>13.0</ele><time>2026-04-07T17:25:37Z</time></trkpt><trkpt lat="37.36262147751413" lon="13.341845689723037"><ele>13.0</ele><time>2026-04-07T17:25:39Z</time></trkpt><trkpt lat="37.36256733136433" lon="13.341904388613964"><ele>13.0</ele><time>2026-04-07T17:25:40Z</time></trkpt><trkpt lat="37.36254213365526" lon="13.341985512105756"><ele>13.0</ele><time>2026-04-07T17:25:42Z</time></trkpt><trkpt lat="37.36245180273441" lon="13.342075697835563"><ele>13.0</ele><time>2026-04-07T17:25:45Z</time></trkpt><trkpt lat="37.36238093445858" lon="13.342169201545577"><ele>13.0</ele><time>2026-04-07T17:25:47Z</time></trkpt><trkpt lat="37.36231399617076" lon="13.342267582564075"><ele>12.166666666666666</ele><time>2026-04-07T17:25:49Z</time></trkpt><trkpt lat="37.362244444911376" lon="13.342353870169898"><ele>11.333333333333332</ele><time>2026-04-07T17:25:51Z</time></trkpt><trkpt lat="37.36221245177855" lon="13.34245317671055"><ele>10.5</ele><time>2026-04-07T17:25:54Z</time></trkpt><trkpt lat="37.36225819739277" lon="13.342510863732297"><ele>9.666666666666666</ele><time>2026-04-07T17:25:57Z</time></trkpt><trkpt lat="37.36231167776371" lon="13.342555889259605"><ele>8.833333333333332</ele><time>2026-04-07T17:26:00Z</time></trkpt><trkpt lat="37.3623754259224" lon="13.342619930230791"><ele>8.0</ele><time>2026-04-07T17:26:02.999Z</time></trkpt><trkpt lat="37.36243056763552" lon="13.342675764197047"><ele>7.999999999999999</ele><time>2026-04-07T17:26:05.999Z</time></trkpt><trkpt lat="37.36249453127837" lon="13.342735699308411"><ele>8.0</ele><time>2026-04-07T17:26:07.999Z</time></trkpt><trkpt lat="37.36253819670549" lon="13.342800821401823"><ele>8.0</ele><time>2026-04-07T17:26:09.999Z</time></trkpt><trkpt lat="37.3625519295713" lon="13.342896662488581"><ele>8.0</ele><time>2026-04-07T17:26:11.999Z</time></trkpt><trkpt lat="37.362491283725056" lon="13.34298000402996"><ele>7.999999999999999</ele><time>2026-04-07T17:26:13.999Z</time></trkpt><trkpt lat="37.362447763075984" lon="13.343057518740848"><ele>8.0</ele><time>2026-04-07T17:26:14.999Z</time></trkpt><trkpt lat="37.36242799500583" lon="13.343155183032898"><ele>7.833333333333333</ele><time>2026-04-07T17:26:16.999Z</time></trkpt><trkpt lat="37.362365680234475" lon="13.343222664278084"><ele>7.666666666666666</ele><time>2026-04-07T17:26:22.999Z</time></trkpt><trkpt lat="37.362307156615685" lon="13.343286224977007"><ele>7.5</ele><time>2026-04-07T17:26:24.999Z</time></trkpt><trkpt lat="37.362230938126665" lon="13.343288991364899"><ele>7.333333333333334</ele><time>2026-04-07T17:26:27.999Z</time></trkpt><trkpt lat="37.36215092338486" lon="13.343361026288868"><ele>7.166666666666667</ele><time>2026-04-07T17:26:30.999Z</time></trkpt><trkpt lat="37.36209617312608" lon="13.34342505787713"><ele>7.0</ele><time>2026-04-07T17:26:32.999Z</time></trkpt><trkpt lat="37.36203402065249" lon="13.343459997226265"><ele>7.833333333333334</ele><time>2026-04-07T17:26:34.999Z</time></trkpt><trkpt lat="37.361974902703324" lon="13.343529121634514"><ele>8.666666666666668</ele><time>2026-04-07T17:26:36.999Z</time></trkpt><trkpt lat="37.36191617647511" lon="13.34360526973057"><ele>9.5</ele><time>2026-04-07T17:26:38.999Z</time></trkpt><trkpt lat="37.361844951164045" lon="13.343672476510648"><ele>10.333333333333334</ele><time>2026-04-07T17:26:40.999Z</time></trkpt><trkpt lat="37.36180572517867" lon="13.343742063528264"><ele>11.166666666666666</ele><time>2026-04-07T17:26:43.999Z</time></trkpt><trkpt lat="37.36174780778227" lon="13.343787127292002"><ele>12.0</ele><time>2026-04-07T17:26:45.999Z</time></trkpt><trkpt lat="37.361691218773785" lon="13.343827606582519"><ele>11.333333333333334</ele><time>2026-04-07T17:26:48.999Z</time></trkpt><trkpt lat="37.361642914399326" lon="13.343902596074308"><ele>10.666666666666666</ele><time>2026-04-07T17:26:50.999Z</time></trkpt><trkpt lat="37.361569732690285" lon="13.343979512478283"><ele>10.0</ele><time>2026-04-07T17:26:53.999Z</time></trkpt><trkpt lat="37.36150711022602" lon="13.344041601831472"><ele>9.333333333333332</ele><time>2026-04-07T17:26:56.999Z</time></trkpt><trkpt lat="37.3614512940951" lon="13.344101005927234"><ele>8.666666666666666</ele><time>2026-04-07T17:26:58.999Z</time></trkpt><trkpt lat="37.36137893712776" lon="13.344149728758353"><ele>8.0</ele><time>2026-04-07T17:27:01.999Z</time></trkpt><trkpt lat="37.36131872205441" lon="13.344182964421233"><ele>7.999999999999999</ele><time>2026-04-07T17:27:06.999Z</time></trkpt><trkpt lat="37.3612822347559" lon="13.344256441283006"><ele>8.0</ele><time>2026-04-07T17:27:14Z</time></trkpt><trkpt lat="37.36122659320219" lon="13.344332242867605"><ele>8.0</ele><time>2026-04-07T17:27:17Z</time></trkpt><trkpt lat="37.36115366896815" lon="13.344405727673895"><ele>8.0</ele><time>2026-04-07T17:27:20Z</time></trkpt><trkpt lat="37.3610899134442" lon="13.34441058938053"><ele>7.999999999999999</ele><time>2026-04-07T17:27:22Z</time></trkpt><trkpt lat="37.3610279913882" lon="13.344426380918094"><ele>8.0</ele><time>2026-04-07T17:27:24Z</time></trkpt><trkpt lat="37.360943620132716" lon="13.344469996437452"><ele>8.0</ele><time>2026-04-07T17:27:38Z</time></trkpt><trkpt lat="37.36087129051353" lon="13.344490736790506"><ele>8.0</ele><time>2026-04-07T17:27:40Z</time></trkpt><trkpt lat="37.36082365692585" lon="13.344378790599615"><ele>8.0</ele><time>2026-04-07T17:27:43Z</time></trkpt><trkpt lat="37.3607107347208" lon="13.344260352720262"><ele>8.0</ele><time>2026-04-07T17:27:45Z</time></trkpt><trkpt lat="37.3606649093596" lon="13.344193132335167"><ele>8.0</ele><time>2026-04-07T17:27:46Z</time></trkpt><trkpt lat="37.36057603729301" lon="13.34409949541085"><ele>8.0</ele><time>2026-04-07T17:27:48Z</time></trkpt><trkpt lat="37.36051291084203" lon="13.344048182235362"><ele>2.0</ele><time>2026-04-07T17:27:49Z</time></trkpt><trkpt lat="37.36043115391115" lon="13.344012174760474"><ele>2.0</ele><time>2026-04-07T17:27:51Z</time></trkpt></trkseg></trk></gpx>